Terminal Aerodrome Forecast
Issued by NWS

Home | Current Version | Previous Version | Graphics & Text | Print | Product List | Glossary On
Versions: 1 2 3 4 5 6 7 8 9 10 11 12 13 14
000
FTUS43 KPAH 270520
TAFOWB
TAF
KOWB 270520Z 2706/2806 22007KT P6SM BKN060
      TEMPO 2711/2715 BKN025
     FM271500 22008KT P6SM SCT025 BKN035 PROB30 2803/2806 4SM TSRA
      BKN030CB=

USA.gov is the U.S. government's official web portal to all federal, state and local government web resources and services.